Clallam Bay, WA (98326)

9:11 PM PDT on September 17, 2014 (GMT -0700)
MesoWest | Change Station
CLOSE
Current Station
Personal Weather Station
Location: Clallam Bay, WA
Elevation: 180 ft
Nearby Weather Stations
4.0 Earthquake: Seabeck, Washington (18 hours ago)  

Elev 180 ft 48.18 °N, 124.21 °W | Updated 4 days ago

Rain
Rain
57 °F
Feels Like 57 °F
N
1
Wind Variable Wind from North
Gusts 1 mph

Today
High -- | Low -- °F
--% Chance of Precip.
Yesterday
High -- | Low -- °F
Precip. -- in
6:57 AM 7:25 PM
Waning Crescent, 30% visible
Pressure 29.75 in
Visibility 7.0 miles
Clouds Mostly Cloudy 10000 ft
Overcast 11000 ft
Dew Point 55 °F
Humidity 98%
Rainfall -9999.00 in
Snow Depth 0 in , 0 in , 0 in
UV 0 out of 12
Pollen 1.40 out of 12
Air Quality Not available.
Flu Activity Not available.
METAR KUIL 180353Z AUTO 00000KT 7SM -RA BKN100 OVC110 15/14 A2975 RMK AO2 SLP074 P0001 T01500139

More Conditions Fewer Conditions

Pressure 29.75 in
Visibility 7.0 miles
Clouds Mostly Cloudy 10000 ft
Overcast 11000 ft
Dew Point 55 °F
Humidity 98%
Rainfall -9999.00 in
Snow Depth 0 in , 0 in , 0 in
UV 0 out of 12
Pollen 1.40 out of 12
Air Quality Not available.
Flu Activity Not available.
METAR KUIL 180353Z AUTO 00000KT 7SM -RA BKN100 OVC110 15/14 A2975 RMK AO2 SLP074 P0001 T01500139

More Conditions Fewer Conditions

10-Day Weather Forecast

Almanac

Astronomy

Sep. 17, 2014 Rise Set
Actual Time 6:57 AM PDT 7:25 PM PDT
Civil Twilight 6:25 AM PDT 7:56 PM PDT
Nautical Twilight 5:48 AM PDT 8:33 PM PDT
Astronomical Twilight 5:10 AM PDT 9:11 PM PDT
Moon 12:42 AM PDT (9/17) 3:57 PM PDT (9/17)
Length of Visible Light 13h 30m
Length of Day
12h 28m
Tomorrow will be 3m 28s shorter.
Waning Crescent, 30% of the Moon is Illuminated
Sep 18
Waning Crescent
Sep 24
New
Oct 1
First Quarter
Oct 8
Full
Oct 15
Last Quarter

Today's Extremes

State Highs State Lows

Community

WunderPhotos

Upload Photos

1,754,290 photos uploaded!

Nearby

Snow Depth

Station Depth Elevation
Dungeness 0 in 4100 ft
Harts Pass 0 in 6500 ft
Rainy Pass 0 in 4780 ft
Green Lake 0 in 6000 ft
Lone Pine 0 in 3800 ft

Earthquake Activity

City Distance Mag. Time & Date
Seabeck, Washington 72 miles 4.0 3:06 AM PDT
2014-09-17
Morton, Washington 155 miles 3.0 5:43 AM PDT
2014-09-16
Minimum magnitude displayed is 2.5.

Coastal Water Temperatures

Place Temperature
La Push, WA 60.1 °F
Port Angeles, WA 51.1 °F
Friday Harbor, WA 53.1 °F
Westport, WA 59.0 °F

Nearby Weather Stations